sensor_id;sensor_type;location;lat;lon;timestamp;P1;durP1;ratioP1;P2;durP2;ratioP2
75971;SDS011;64651;47.540;19.088;2023-01-15T00:04:50;43.53;;;17.00;;
75971;SDS011;64651;47.540;19.088;2023-01-15T00:09:52;46.47;;;16.50;;
75971;SDS011;64651;47.540;19.088;2023-01-15T00:14:54;47.13;;;16.58;;
75971;SDS011;64651;47.540;19.088;2023-01-15T00:19:59;42.10;;;15.40;;
75971;SDS011;64651;47.540;19.088;2023-01-15T00:25:01;47.75;;;16.23;;
75971;SDS011;64651;47.540;19.088;2023-01-15T00:30:22;39.83;;;15.73;;
75971;SDS011;64651;47.540;19.088;2023-01-15T00:35:25;38.40;;;14.80;;
75971;SDS011;64651;47.540;19.088;2023-01-15T00:40:27;40.63;;;14.82;;
75971;SDS011;64651;47.540;19.088;2023-01-15T00:45:29;43.63;;;15.38;;
75971;SDS011;64651;47.540;19.088;2023-01-15T00:50:32;38.13;;;14.70;;
75971;SDS011;64651;47.540;19.088;2023-01-15T00:55:34;34.47;;;13.70;;
75971;SDS011;64651;47.540;19.088;2023-01-15T01:00:37;41.83;;;14.00;;
75971;SDS011;64651;47.540;19.088;2023-01-15T01:05:39;37.28;;;14.65;;
75971;SDS011;64651;47.540;19.088;2023-01-15T01:10:41;37.00;;;14.50;;
75971;SDS011;64651;47.540;19.088;2023-01-15T01:15:44;36.83;;;13.73;;
75971;SDS011;64651;47.540;19.088;2023-01-15T01:20:46;36.55;;;14.50;;
75971;SDS011;64651;47.540;19.088;2023-01-15T01:25:48;39.10;;;13.67;;
75971;SDS011;64651;47.540;19.088;2023-01-15T01:30:50;37.95;;;13.15;;
75971;SDS011;64651;47.540;19.088;2023-01-15T01:35:52;30.37;;;11.48;;
75971;SDS011;64651;47.540;19.088;2023-01-15T01:40:54;34.20;;;12.80;;
75971;SDS011;64651;47.540;19.088;2023-01-15T01:45:57;32.70;;;12.57;;
75971;SDS011;64651;47.540;19.088;2023-01-15T01:50:59;34.60;;;12.37;;
75971;SDS011;64651;47.540;19.088;2023-01-15T01:56:03;36.17;;;13.62;;
75971;SDS011;64651;47.540;19.088;2023-01-15T02:01:09;33.33;;;12.10;;
75971;SDS011;64651;47.540;19.088;2023-01-15T02:06:12;34.05;;;12.57;;
75971;SDS011;64651;47.540;19.088;2023-01-15T02:11:18;38.03;;;13.05;;
75971;SDS011;64651;47.540;19.088;2023-01-15T02:21:48;35.35;;;12.88;;
75971;SDS011;64651;47.540;19.088;2023-01-15T02:26:59;32.63;;;12.05;;
75971;SDS011;64651;47.540;19.088;2023-01-15T02:32:18;33.30;;;12.05;;
75971;SDS011;64651;47.540;19.088;2023-01-15T02:37:28;33.03;;;12.95;;
75971;SDS011;64651;47.540;19.088;2023-01-15T02:42:33;35.27;;;12.67;;
75971;SDS011;64651;47.540;19.088;2023-01-15T02:47:39;37.05;;;13.20;;
75971;SDS011;64651;47.540;19.088;2023-01-15T02:52:45;30.55;;;12.37;;
75971;SDS011;64651;47.540;19.088;2023-01-15T02:57:50;33.25;;;12.20;;
75971;SDS011;64651;47.540;19.088;2023-01-15T03:03:06;34.28;;;12.57;;
75971;SDS011;64651;47.540;19.088;2023-01-15T03:08:14;35.37;;;12.33;;
75971;SDS011;64651;47.540;19.088;2023-01-15T03:13:19;35.25;;;13.00;;
75971;SDS011;64651;47.540;19.088;2023-01-15T03:18:31;33.65;;;12.85;;
75971;SDS011;64651;47.540;19.088;2023-01-15T03:23:38;32.83;;;12.93;;
75971;SDS011;64651;47.540;19.088;2023-01-15T03:28:46;31.67;;;12.35;;
75971;SDS011;64651;47.540;19.088;2023-01-15T03:33:50;34.83;;;12.77;;
75971;SDS011;64651;47.540;19.088;2023-01-15T03:38:53;38.78;;;13.43;;
75971;SDS011;64651;47.540;19.088;2023-01-15T03:44:06;32.33;;;12.82;;
75971;SDS011;64651;47.540;19.088;2023-01-15T03:59:38;28.50;;;11.27;;
75971;SDS011;64651;47.540;19.088;2023-01-15T04:04:48;35.25;;;12.37;;
75971;SDS011;64651;47.540;19.088;2023-01-15T04:09:52;35.30;;;12.10;;
75971;SDS011;64651;47.540;19.088;2023-01-15T04:14:55;30.62;;;11.63;;
75971;SDS011;64651;47.540;19.088;2023-01-15T04:19:57;28.62;;;10.73;;
75971;SDS011;64651;47.540;19.088;2023-01-15T04:24:59;30.53;;;10.90;;
75971;SDS011;64651;47.540;19.088;2023-01-15T04:30:01;26.48;;;9.85;;
75971;SDS011;64651;47.540;19.088;2023-01-15T04:35:04;30.25;;;11.10;;
75971;SDS011;64651;47.540;19.088;2023-01-15T04:40:07;32.63;;;12.02;;
75971;SDS011;64651;47.540;19.088;2023-01-15T04:45:10;27.45;;;10.23;;
75971;SDS011;64651;47.540;19.088;2023-01-15T04:50:12;30.20;;;11.20;;
75971;SDS011;64651;47.540;19.088;2023-01-15T04:55:14;30.33;;;11.50;;
75971;SDS011;64651;47.540;19.088;2023-01-15T05:00:16;25.83;;;10.13;;
75971;SDS011;64651;47.540;19.088;2023-01-15T05:05:19;28.23;;;10.48;;
75971;SDS011;64651;47.540;19.088;2023-01-15T05:10:21;25.05;;;9.85;;
75971;SDS011;64651;47.540;19.088;2023-01-15T05:15:23;28.63;;;10.97;;
75971;SDS011;64651;47.540;19.088;2023-01-15T05:20:25;29.75;;;10.85;;
75971;SDS011;64651;47.540;19.088;2023-01-15T05:25:27;30.50;;;10.82;;
75971;SDS011;64651;47.540;19.088;2023-01-15T05:30:30;28.27;;;11.02;;
75971;SDS011;64651;47.540;19.088;2023-01-15T05:35:32;27.33;;;10.27;;
75971;SDS011;64651;47.540;19.088;2023-01-15T05:40:34;26.03;;;9.70;;
75971;SDS011;64651;47.540;19.088;2023-01-15T05:45:37;26.77;;;9.65;;
75971;SDS011;64651;47.540;19.088;2023-01-15T05:50:39;25.33;;;10.05;;
75971;SDS011;64651;47.540;19.088;2023-01-15T05:55:41;28.92;;;9.25;;
75971;SDS011;64651;47.540;19.088;2023-01-15T06:00:43;24.25;;;8.93;;
75971;SDS011;64651;47.540;19.088;2023-01-15T06:05:49;25.10;;;9.60;;
75971;SDS011;64651;47.540;19.088;2023-01-15T06:10:51;24.98;;;9.02;;
75971;SDS011;64651;47.540;19.088;2023-01-15T06:15:54;24.67;;;9.20;;
75971;SDS011;64651;47.540;19.088;2023-01-15T06:20:56;26.87;;;9.95;;
75971;SDS011;64651;47.540;19.088;2023-01-15T06:26:05;26.35;;;10.23;;
75971;SDS011;64651;47.540;19.088;2023-01-15T06:31:09;28.83;;;10.83;;
75971;SDS011;64651;47.540;19.088;2023-01-15T06:36:17;28.80;;;10.77;;
75971;SDS011;64651;47.540;19.088;2023-01-15T06:41:24;26.75;;;9.82;;
75971;SDS011;64651;47.540;19.088;2023-01-15T06:46:47;29.05;;;10.60;;
75971;SDS011;64651;47.540;19.088;2023-01-15T06:52:09;30.35;;;10.52;;
75971;SDS011;64651;47.540;19.088;2023-01-15T06:57:11;26.53;;;9.87;;
75971;SDS011;64651;47.540;19.088;2023-01-15T07:02:13;28.48;;;10.77;;
75971;SDS011;64651;47.540;19.088;2023-01-15T07:07:16;26.80;;;10.55;;
75971;SDS011;64651;47.540;19.088;2023-01-15T07:12:20;29.92;;;10.73;;
75971;SDS011;64651;47.540;19.088;2023-01-15T07:17:23;25.02;;;9.75;;
75971;SDS011;64651;47.540;19.088;2023-01-15T07:22:25;26.73;;;10.53;;
75971;SDS011;64651;47.540;19.088;2023-01-15T07:27:27;30.83;;;11.20;;
75971;SDS011;64651;47.540;19.088;2023-01-15T07:32:29;29.05;;;11.60;;
75971;SDS011;64651;47.540;19.088;2023-01-15T07:37:31;26.95;;;10.90;;
75971;SDS011;64651;47.540;19.088;2023-01-15T07:42:33;27.52;;;11.00;;
75971;SDS011;64651;47.540;19.088;2023-01-15T07:47:54;29.07;;;11.43;;
75971;SDS011;64651;47.540;19.088;2023-01-15T07:53:15;28.15;;;10.90;;
75971;SDS011;64651;47.540;19.088;2023-01-15T07:58:17;30.98;;;11.32;;
75971;SDS011;64651;47.540;19.088;2023-01-15T08:03:21;27.35;;;11.57;;
75971;SDS011;64651;47.540;19.088;2023-01-15T08:08:23;29.20;;;11.43;;
75971;SDS011;64651;47.540;19.088;2023-01-15T08:13:25;26.50;;;11.73;;
75971;SDS011;64651;47.540;19.088;2023-01-15T08:18:46;30.75;;;12.18;;
75971;SDS011;64651;47.540;19.088;2023-01-15T08:23:48;31.42;;;11.95;;
75971;SDS011;64651;47.540;19.088;2023-01-15T08:28:51;27.98;;;12.05;;
75971;SDS011;64651;47.540;19.088;2023-01-15T08:33:56;29.33;;;11.77;;
75971;SDS011;64651;47.540;19.088;2023-01-15T08:38:59;32.40;;;12.70;;
75971;SDS011;64651;47.540;19.088;2023-01-15T08:44:01;32.83;;;13.57;;
75971;SDS011;64651;47.540;19.088;2023-01-15T08:49:03;33.80;;;12.60;;
75971;SDS011;64651;47.540;19.088;2023-01-15T08:54:07;27.98;;;12.43;;
75971;SDS011;64651;47.540;19.088;2023-01-15T08:59:09;26.02;;;10.85;;
75971;SDS011;64651;47.540;19.088;2023-01-15T09:04:15;26.77;;;13.17;;
75971;SDS011;64651;47.540;19.088;2023-01-15T09:09:18;30.42;;;13.55;;
75971;SDS011;64651;47.540;19.088;2023-01-15T09:14:21;28.35;;;12.05;;
75971;SDS011;64651;47.540;19.088;2023-01-15T09:19:43;26.95;;;12.60;;
75971;SDS011;64651;47.540;19.088;2023-01-15T09:24:45;28.33;;;12.27;;
75971;SDS011;64651;47.540;19.088;2023-01-15T09:29:47;23.90;;;10.67;;
75971;SDS011;64651;47.540;19.088;2023-01-15T09:34:49;23.48;;;9.18;;
75971;SDS011;64651;47.540;19.088;2023-01-15T09:39:52;27.35;;;10.88;;
75971;SDS011;64651;47.540;19.088;2023-01-15T09:50:17;23.77;;;10.38;;
75971;SDS011;64651;47.540;19.088;2023-01-15T09:55:25;23.00;;;10.77;;
75971;SDS011;64651;47.540;19.088;2023-01-15T10:00:38;21.87;;;10.10;;
75971;SDS011;64651;47.540;19.088;2023-01-15T10:11:25;22.10;;;9.60;;
75971;SDS011;64651;47.540;19.088;2023-01-15T10:16:59;22.80;;;9.30;;
75971;SDS011;64651;47.540;19.088;2023-01-15T10:22:03;21.97;;;9.13;;
75971;SDS011;64651;47.540;19.088;2023-01-15T10:27:15;19.17;;;8.93;;
75971;SDS011;64651;47.540;19.088;2023-01-15T10:48:44;18.10;;;7.87;;
75971;SDS011;64651;47.540;19.088;2023-01-15T10:53:57;17.37;;;8.10;;
75971;SDS011;64651;47.540;19.088;2023-01-15T10:59:05;17.30;;;7.43;;
75971;SDS011;64651;47.540;19.088;2023-01-15T11:04:30;15.90;;;7.43;;
75971;SDS011;64651;47.540;19.088;2023-01-15T11:09:33;17.62;;;7.60;;
75971;SDS011;64651;47.540;19.088;2023-01-15T11:14:38;16.63;;;7.53;;
75971;SDS011;64651;47.540;19.088;2023-01-15T11:20:09;16.05;;;7.07;;
75971;SDS011;64651;47.540;19.088;2023-01-15T11:25:25;14.48;;;7.22;;
75971;SDS011;64651;47.540;19.088;2023-01-15T11:30:34;17.33;;;8.07;;
75971;SDS011;64651;47.540;19.088;2023-01-15T11:35:38;16.52;;;7.78;;
75971;SDS011;64651;47.540;19.088;2023-01-15T11:41:00;18.23;;;8.50;;
75971;SDS011;64651;47.540;19.088;2023-01-15T11:46:18;16.10;;;7.85;;
75971;SDS011;64651;47.540;19.088;2023-01-15T11:51:52;17.83;;;7.75;;
75971;SDS011;64651;47.540;19.088;2023-01-15T11:56:56;19.23;;;8.23;;
75971;SDS011;64651;47.540;19.088;2023-01-15T12:02:01;18.52;;;8.35;;
75971;SDS011;64651;47.540;19.088;2023-01-15T12:07:22;18.57;;;8.73;;
75971;SDS011;64651;47.540;19.088;2023-01-15T12:12:43;18.37;;;8.70;;
75971;SDS011;64651;47.540;19.088;2023-01-15T12:33:47;20.67;;;9.30;;
75971;SDS011;64651;47.540;19.088;2023-01-15T12:44:01;22.27;;;10.38;;
75971;SDS011;64651;47.540;19.088;2023-01-15T12:50:07;21.35;;;9.95;;
75971;SDS011;64651;47.540;19.088;2023-01-15T12:54:57;21.42;;;9.52;;
75971;SDS011;64651;47.540;19.088;2023-01-15T13:00:11;22.97;;;9.77;;
75971;SDS011;64651;47.540;19.088;2023-01-15T13:10:33;21.55;;;10.05;;
75971;SDS011;64651;47.540;19.088;2023-01-15T13:15:37;22.77;;;10.30;;
75971;SDS011;64651;47.540;19.088;2023-01-15T13:20:46;23.75;;;10.75;;
75971;SDS011;64651;47.540;19.088;2023-01-15T13:25:53;24.10;;;11.07;;
75971;SDS011;64651;47.540;19.088;2023-01-15T13:41:20;26.05;;;11.52;;
75971;SDS011;64651;47.540;19.088;2023-01-15T13:46:46;24.87;;;10.98;;
75971;SDS011;64651;47.540;19.088;2023-01-15T13:52:00;23.40;;;11.00;;
75971;SDS011;64651;47.540;19.088;2023-01-15T13:57:09;22.37;;;10.50;;
75971;SDS011;64651;47.540;19.088;2023-01-15T14:02:28;24.05;;;10.60;;
75971;SDS011;64651;47.540;19.088;2023-01-15T14:07:35;22.67;;;10.13;;
75971;SDS011;64651;47.540;19.088;2023-01-15T14:17:54;23.80;;;11.27;;
75971;SDS011;64651;47.540;19.088;2023-01-15T14:38:57;24.60;;;10.63;;
75971;SDS011;64651;47.540;19.088;2023-01-15T14:44:02;22.03;;;10.20;;
75971;SDS011;64651;47.540;19.088;2023-01-15T14:49:25;23.42;;;9.70;;
75971;SDS011;64651;47.540;19.088;2023-01-15T14:54:31;22.23;;;9.63;;
75971;SDS011;64651;47.540;19.088;2023-01-15T15:04:42;24.02;;;10.77;;
75971;SDS011;64651;47.540;19.088;2023-01-15T15:09:58;26.27;;;12.30;;
75971;SDS011;64651;47.540;19.088;2023-01-15T15:25:37;25.12;;;11.80;;
75971;SDS011;64651;47.540;19.088;2023-01-15T15:30:42;23.42;;;10.98;;
75971;SDS011;64651;47.540;19.088;2023-01-15T15:35:48;26.97;;;11.47;;
75971;SDS011;64651;47.540;19.088;2023-01-15T15:41:03;27.95;;;12.10;;
75971;SDS011;64651;47.540;19.088;2023-01-15T15:46:32;26.00;;;11.60;;
75971;SDS011;64651;47.540;19.088;2023-01-15T15:51:52;29.63;;;13.75;;
75971;SDS011;64651;47.540;19.088;2023-01-15T15:56:57;34.17;;;15.23;;
75971;SDS011;64651;47.540;19.088;2023-01-15T16:07:25;29.48;;;14.30;;
75971;SDS011;64651;47.540;19.088;2023-01-15T16:12:30;29.92;;;14.18;;
75971;SDS011;64651;47.540;19.088;2023-01-15T16:17:37;32.08;;;14.32;;
75971;SDS011;64651;47.540;19.088;2023-01-15T16:22:43;37.28;;;17.27;;
75971;SDS011;64651;47.540;19.088;2023-01-15T16:27:47;31.03;;;14.77;;
75971;SDS011;64651;47.540;19.088;2023-01-15T16:32:49;35.28;;;16.75;;
75971;SDS011;64651;47.540;19.088;2023-01-15T16:37:56;32.10;;;15.27;;
75971;SDS011;64651;47.540;19.088;2023-01-15T16:43:09;34.08;;;15.07;;
75971;SDS011;64651;47.540;19.088;2023-01-15T16:48:25;35.25;;;15.45;;
75971;SDS011;64651;47.540;19.088;2023-01-15T16:53:38;36.87;;;16.87;;
75971;SDS011;64651;47.540;19.088;2023-01-15T16:58:41;34.70;;;15.15;;
75971;SDS011;64651;47.540;19.088;2023-01-15T17:03:44;32.67;;;15.05;;
75971;SDS011;64651;47.540;19.088;2023-01-15T17:08:46;43.33;;;20.60;;
75971;SDS011;64651;47.540;19.088;2023-01-15T17:13:50;35.67;;;16.62;;
75971;SDS011;64651;47.540;19.088;2023-01-15T17:19:08;35.40;;;16.00;;
75971;SDS011;64651;47.540;19.088;2023-01-15T17:24:12;39.15;;;18.48;;
75971;SDS011;64651;47.540;19.088;2023-01-15T17:29:15;33.05;;;15.90;;
75971;SDS011;64651;47.540;19.088;2023-01-15T17:34:19;39.20;;;16.52;;
75971;SDS011;64651;47.540;19.088;2023-01-15T17:39:25;35.80;;;15.48;;
75971;SDS011;64651;47.540;19.088;2023-01-15T17:44:27;36.57;;;15.70;;
75971;SDS011;64651;47.540;19.088;2023-01-15T17:49:30;36.33;;;16.23;;
75971;SDS011;64651;47.540;19.088;2023-01-15T17:54:32;35.17;;;16.62;;
75971;SDS011;64651;47.540;19.088;2023-01-15T18:00:13;35.65;;;15.82;;
75971;SDS011;64651;47.540;19.088;2023-01-15T18:05:34;35.90;;;15.10;;
75971;SDS011;64651;47.540;19.088;2023-01-15T18:10:37;37.17;;;16.30;;
75971;SDS011;64651;47.540;19.088;2023-01-15T18:15:39;37.35;;;16.73;;
75971;SDS011;64651;47.540;19.088;2023-01-15T18:20:42;37.63;;;16.45;;
75971;SDS011;64651;47.540;19.088;2023-01-15T18:25:44;42.17;;;17.15;;
75971;SDS011;64651;47.540;19.088;2023-01-15T18:30:48;38.85;;;16.70;;
75971;SDS011;64651;47.540;19.088;2023-01-15T18:35:50;41.27;;;17.60;;
75971;SDS011;64651;47.540;19.088;2023-01-15T18:41:12;41.47;;;18.20;;
75971;SDS011;64651;47.540;19.088;2023-01-15T18:46:35;42.62;;;18.62;;
75971;SDS011;64651;47.540;19.088;2023-01-15T18:51:48;43.75;;;19.35;;
75971;SDS011;64651;47.540;19.088;2023-01-15T18:57:12;43.95;;;19.52;;
75971;SDS011;64651;47.540;19.088;2023-01-15T19:02:16;48.90;;;20.63;;
75971;SDS011;64651;47.540;19.088;2023-01-15T19:07:20;47.28;;;19.62;;
75971;SDS011;64651;47.540;19.088;2023-01-15T19:12:22;47.10;;;20.98;;
75971;SDS011;64651;47.540;19.088;2023-01-15T19:17:24;47.92;;;20.23;;
75971;SDS011;64651;47.540;19.088;2023-01-15T19:22:45;49.58;;;20.77;;
75971;SDS011;64651;47.540;19.088;2023-01-15T19:28:00;46.70;;;21.03;;
75971;SDS011;64651;47.540;19.088;2023-01-15T19:33:02;53.13;;;22.17;;
75971;SDS011;64651;47.540;19.088;2023-01-15T19:38:05;53.63;;;22.02;;
75971;SDS011;64651;47.540;19.088;2023-01-15T19:43:09;54.78;;;24.30;;
75971;SDS011;64651;47.540;19.088;2023-01-15T19:48:31;59.10;;;23.15;;
75971;SDS011;64651;47.540;19.088;2023-01-15T19:53:53;53.53;;;23.70;;
75971;SDS011;64651;47.540;19.088;2023-01-15T19:58:55;55.47;;;23.30;;
75971;SDS011;64651;47.540;19.088;2023-01-15T20:03:57;58.33;;;23.27;;
75971;SDS011;64651;47.540;19.088;2023-01-15T20:08:59;57.38;;;23.45;;
75971;SDS011;64651;47.540;19.088;2023-01-15T20:14:01;54.95;;;24.10;;
75971;SDS011;64651;47.540;19.088;2023-01-15T20:19:03;56.33;;;24.13;;
75971;SDS011;64651;47.540;19.088;2023-01-15T20:24:05;55.85;;;23.58;;
75971;SDS011;64651;47.540;19.088;2023-01-15T20:29:08;51.42;;;23.12;;
75971;SDS011;64651;47.540;19.088;2023-01-15T20:34:10;55.08;;;22.15;;
75971;SDS011;64651;47.540;19.088;2023-01-15T20:39:12;48.08;;;22.17;;
75971;SDS011;64651;47.540;19.088;2023-01-15T20:44:16;45.37;;;20.57;;
75971;SDS011;64651;47.540;19.088;2023-01-15T20:49:45;47.65;;;20.95;;
75971;SDS011;64651;47.540;19.088;2023-01-15T20:54:47;43.90;;;20.30;;
75971;SDS011;64651;47.540;19.088;2023-01-15T20:59:49;42.17;;;19.25;;
75971;SDS011;64651;47.540;19.088;2023-01-15T21:04:51;46.20;;;19.90;;
75971;SDS011;64651;47.540;19.088;2023-01-15T21:09:54;47.27;;;19.60;;
75971;SDS011;64651;47.540;19.088;2023-01-15T21:14:56;42.38;;;18.95;;
75971;SDS011;64651;47.540;19.088;2023-01-15T21:19:58;44.45;;;19.80;;
75971;SDS011;64651;47.540;19.088;2023-01-15T21:25:00;38.42;;;17.33;;
75971;SDS011;64651;47.540;19.088;2023-01-15T21:30:03;41.37;;;17.92;;
75971;SDS011;64651;47.540;19.088;2023-01-15T21:35:06;39.87;;;18.40;;
75971;SDS011;64651;47.540;19.088;2023-01-15T21:40:08;40.00;;;19.27;;
75971;SDS011;64651;47.540;19.088;2023-01-15T21:45:14;40.78;;;18.17;;
75971;SDS011;64651;47.540;19.088;2023-01-15T21:50:16;40.53;;;18.67;;
75971;SDS011;64651;47.540;19.088;2023-01-15T21:55:18;45.08;;;19.20;;
75971;SDS011;64651;47.540;19.088;2023-01-15T22:00:21;41.67;;;19.10;;
75971;SDS011;64651;47.540;19.088;2023-01-15T22:05:23;43.72;;;19.83;;
75971;SDS011;64651;47.540;19.088;2023-01-15T22:10:25;46.90;;;20.62;;
75971;SDS011;64651;47.540;19.088;2023-01-15T22:15:27;46.80;;;20.73;;
75971;SDS011;64651;47.540;19.088;2023-01-15T22:20:29;49.28;;;20.45;;
75971;SDS011;64651;47.540;19.088;2023-01-15T22:25:31;47.83;;;21.00;;
75971;SDS011;64651;47.540;19.088;2023-01-15T22:30:36;44.22;;;20.10;;
75971;SDS011;64651;47.540;19.088;2023-01-15T22:35:39;43.78;;;20.12;;
75971;SDS011;64651;47.540;19.088;2023-01-15T22:40:41;41.30;;;19.87;;
75971;SDS011;64651;47.540;19.088;2023-01-15T22:45:43;42.03;;;19.87;;
75971;SDS011;64651;47.540;19.088;2023-01-15T22:50:45;46.33;;;19.83;;
75971;SDS011;64651;47.540;19.088;2023-01-15T22:55:53;43.67;;;19.70;;
75971;SDS011;64651;47.540;19.088;2023-01-15T23:00:56;40.70;;;16.98;;
75971;SDS011;64651;47.540;19.088;2023-01-15T23:06:03;42.80;;;18.73;;
75971;SDS011;64651;47.540;19.088;2023-01-15T23:11:07;40.25;;;18.77;;
75971;SDS011;64651;47.540;19.088;2023-01-15T23:16:11;39.60;;;18.47;;
75971;SDS011;64651;47.540;19.088;2023-01-15T23:21:15;37.85;;;16.95;;
75971;SDS011;64651;47.540;19.088;2023-01-15T23:26:19;34.35;;;16.30;;
75971;SDS011;64651;47.540;19.088;2023-01-15T23:31:22;34.22;;;15.57;;
75971;SDS011;64651;47.540;19.088;2023-01-15T23:36:25;34.60;;;16.25;;
75971;SDS011;64651;47.540;19.088;2023-01-15T23:41:27;37.97;;;16.07;;
75971;SDS011;64651;47.540;19.088;2023-01-15T23:46:48;38.08;;;17.02;;
75971;SDS011;64651;47.540;19.088;2023-01-15T23:51:50;35.17;;;16.33;;
75971;SDS011;64651;47.540;19.088;2023-01-15T23:56:53;37.53;;;16.15;;
